createdAt,value
2023-03-05T00:01:25.005Z,67.89
2023-03-05T00:03:54.356Z,68.68
2023-03-05T00:06:23.832Z,69.02
2023-03-05T00:08:53.609Z,69.79
2023-03-05T00:11:21.430Z,70.16
2023-03-05T00:13:52.264Z,70.04
2023-03-05T00:16:20.690Z,69.31
2023-03-05T00:18:49.222Z,69.37
2023-03-05T00:21:22.025Z,68.53
2023-03-05T00:23:53.138Z,69.57
2023-03-05T00:26:22.038Z,69.09
2023-03-05T00:28:52.333Z,68.66
2023-03-05T00:31:21.372Z,69.01
2023-03-05T00:33:57.124Z,69.74
2023-03-05T00:36:25.324Z,69.71
2023-03-05T00:38:53.562Z,70.25
2023-03-05T00:41:21.817Z,70.19
2023-03-05T00:43:49.843Z,70.08
2023-03-05T00:46:17.650Z,70.03
2023-03-05T00:48:45.802Z,69.23
2023-03-05T00:51:13.483Z,69.00
2023-03-05T00:53:41.486Z,69.17
2023-03-05T00:56:09.078Z,69.17
2023-03-05T00:58:38.358Z,70.14
2023-03-05T01:01:06.538Z,70.33
2023-03-05T01:03:34.941Z,70.34
2023-03-05T01:06:05.628Z,69.54
2023-03-05T01:08:34.443Z,69.34
2023-03-05T01:11:02.473Z,68.94
2023-03-05T01:13:30.660Z,68.82
2023-03-05T01:15:58.584Z,68.84
2023-03-05T01:18:26.769Z,69.59
2023-03-05T01:20:54.633Z,70.56
2023-03-05T01:23:22.735Z,70.96
2023-03-05T01:25:54.373Z,71.21
2023-03-05T01:28:22.634Z,70.87
2023-03-05T01:30:50.643Z,70.70
2023-03-05T01:33:18.817Z,71.33
2023-03-05T01:35:47.748Z,71.25
2023-03-05T01:38:16.652Z,69.83
2023-03-05T01:40:44.765Z,69.03
2023-03-05T01:43:12.944Z,69.20
2023-03-05T01:46:00.622Z,69.99
2023-03-05T01:48:28.980Z,69.82
2023-03-05T01:50:56.942Z,70.79
2023-03-05T01:53:25.149Z,70.33
2023-03-05T01:55:54.886Z,70.87
2023-03-05T01:58:25.895Z,70.02
2023-03-05T02:00:55.318Z,70.10
2023-03-05T02:03:25.204Z,70.86
2023-03-05T02:05:53.939Z,70.85
2023-03-05T02:08:22.864Z,70.67
2023-03-05T02:10:53.020Z,70.45
2023-03-05T02:13:25.593Z,70.89
2023-03-05T02:15:54.500Z,71.24
2023-03-05T02:18:22.873Z,70.89
2023-03-05T02:20:52.411Z,70.85
2023-03-05T02:23:21.401Z,71.33
2023-03-05T02:25:49.292Z,71.29
2023-03-05T02:28:26.711Z,71.75
2023-03-05T02:30:54.500Z,71.65
2023-03-05T02:33:23.033Z,71.63
2023-03-05T02:35:51.205Z,71.42
2023-03-05T02:38:21.113Z,72.36
2023-03-05T02:40:48.961Z,71.99
2023-03-05T02:43:18.487Z,71.96
2023-03-05T02:45:46.300Z,71.93
2023-03-05T02:48:14.469Z,72.72
2023-03-05T02:50:42.349Z,73.36
2023-03-05T02:53:10.750Z,73.04
2023-03-05T02:55:39.410Z,73.44
2023-03-05T02:58:07.600Z,72.80
2023-03-05T03:00:35.612Z,73.33
2023-03-05T03:03:03.885Z,72.67
2023-03-05T03:05:31.840Z,73.20
2023-03-05T03:08:00.205Z,73.33
2023-03-05T03:10:28.060Z,74.34
2023-03-05T03:12:56.231Z,73.60
2023-03-05T03:15:24.160Z,73.72
2023-03-05T03:17:52.241Z,74.28
2023-03-05T03:20:20.846Z,74.04
2023-03-05T03:22:49.096Z,74.26
2023-03-05T03:25:18.078Z,73.69
2023-03-05T03:27:46.385Z,74.14
2023-03-05T03:30:14.702Z,73.57
2023-03-05T03:32:42.853Z,73.71
2023-03-05T03:35:11.596Z,73.91
2023-03-05T03:37:39.790Z,74.04
2023-03-05T03:40:07.739Z,73.75
2023-03-05T03:42:36.053Z,73.09
2023-03-05T03:45:04.362Z,73.28
2023-03-05T03:47:32.654Z,73.65
2023-03-05T03:50:00.423Z,74.15
2023-03-05T03:52:28.581Z,73.90
2023-03-05T03:55:02.365Z,73.56
2023-03-05T03:57:31.219Z,73.55
2023-03-05T03:59:59.200Z,73.50
2023-03-05T04:02:27.513Z,72.89
2023-03-05T04:04:55.366Z,73.51
2023-03-05T04:07:23.932Z,74.18
2023-03-05T04:09:51.741Z,74.01
2023-03-05T04:12:20.126Z,74.08
2023-03-05T04:14:48.976Z,73.58
2023-03-05T04:17:17.313Z,74.01
2023-03-05T04:19:45.232Z,73.10
2023-03-05T04:22:14.334Z,73.06
2023-03-05T04:24:42.581Z,72.81
2023-03-05T04:27:11.123Z,74.11
2023-03-05T04:29:39.935Z,74.40
2023-03-05T04:32:08.476Z,73.71
2023-03-05T04:34:37.776Z,74.09
2023-03-05T04:37:06.133Z,74.83
2023-03-05T04:39:33.866Z,74.23
2023-03-05T04:42:02.083Z,74.20
2023-03-05T04:44:29.953Z,73.95
2023-03-05T04:46:58.187Z,74.06
2023-03-05T04:49:25.960Z,74.67
2023-03-05T04:51:54.160Z,75.00
2023-03-05T04:54:22.751Z,74.11
2023-03-05T04:56:50.890Z,74.10
2023-03-05T04:59:18.702Z,74.46
2023-03-05T05:01:47.128Z,75.29
2023-03-05T05:04:14.827Z,75.12
2023-03-05T05:06:42.742Z,75.02
2023-03-05T05:09:10.375Z,75.97
2023-03-05T05:11:38.327Z,76.18
2023-03-05T05:14:06.142Z,76.85
2023-03-05T05:16:34.529Z,77.17
2023-03-05T05:19:02.341Z,77.52
2023-03-05T05:21:30.358Z,76.87
2023-03-05T05:23:57.989Z,75.06
2023-03-05T05:26:27.943Z,76.12
2023-03-05T05:28:55.567Z,76.58
2023-03-05T05:31:23.544Z,76.01
2023-03-05T05:33:51.191Z,75.28
2023-03-05T05:36:19.573Z,75.50
2023-03-05T05:38:47.232Z,75.09
2023-03-05T05:41:16.476Z,75.77
2023-03-05T05:43:44.095Z,76.20
2023-03-05T05:46:16.568Z,75.47
2023-03-05T05:48:44.763Z,76.64
2023-03-05T05:51:15.159Z,77.04
2023-03-05T05:53:43.296Z,76.81
2023-03-05T05:56:12.349Z,75.87
2023-03-05T05:58:41.526Z,76.30
2023-03-05T06:01:28.393Z,76.57
2023-03-05T06:03:56.669Z,77.46
2023-03-05T06:06:25.794Z,77.04
2023-03-05T06:08:53.845Z,77.04
2023-03-05T06:11:22.280Z,77.25
2023-03-05T06:13:50.676Z,76.80
2023-03-05T06:16:21.745Z,77.10
2023-03-05T06:18:49.757Z,77.29
2023-03-05T06:21:19.174Z,76.72
2023-03-05T06:23:48.046Z,76.39
2023-03-05T06:26:17.799Z,75.47
2023-03-05T06:28:45.937Z,75.12
2023-03-05T06:31:19.084Z,76.08
2023-03-05T06:33:47.053Z,76.09
2023-03-05T06:36:16.359Z,76.31
2023-03-05T06:38:44.634Z,75.31
2023-03-05T06:41:17.304Z,75.41
2023-03-05T06:43:46.163Z,75.92
2023-03-05T06:46:19.484Z,75.59
2023-03-05T06:48:47.876Z,74.30
2023-03-05T06:51:20.589Z,74.04
2023-03-05T06:53:49.558Z,73.89
2023-03-05T06:56:19.264Z,73.07
2023-03-05T06:58:49.121Z,72.74
2023-03-05T07:01:17.359Z,71.84
2023-03-05T07:03:45.183Z,70.89
2023-03-05T07:06:14.115Z,69.45
2023-03-05T07:08:42.149Z,70.08
2023-03-05T07:11:11.397Z,69.88
2023-03-05T07:13:39.209Z,70.09
2023-03-05T07:16:08.937Z,68.68
2023-03-05T07:18:36.817Z,67.96
2023-03-05T07:21:09.057Z,68.91
2023-03-05T07:23:37.001Z,67.71
2023-03-05T07:26:06.420Z,67.45
2023-03-05T07:28:34.718Z,68.05
2023-03-05T07:31:05.264Z,67.02
2023-03-05T07:33:35.220Z,65.63
2023-03-05T07:36:05.042Z,65.54
2023-03-05T07:38:32.668Z,65.03
2023-03-05T07:41:04.681Z,66.42
2023-03-05T07:43:32.309Z,65.32
2023-03-05T07:46:03.593Z,64.90
2023-03-05T07:48:31.379Z,63.87
2023-03-05T07:51:03.141Z,62.78
2023-03-05T07:53:30.904Z,63.53
2023-03-05T07:55:59.125Z,63.45
2023-03-05T07:58:26.828Z,66.04
2023-03-05T08:00:54.845Z,66.21
2023-03-05T08:03:23.622Z,65.68
2023-03-05T08:05:51.589Z,62.88
2023-03-05T08:08:19.250Z,62.95
2023-03-05T08:10:47.240Z,62.51
2023-03-05T08:13:15.071Z,61.99
2023-03-05T08:15:43.170Z,60.79
2023-03-05T08:18:11.046Z,60.11
2023-03-05T08:20:39.120Z,58.43
2023-03-05T08:23:06.720Z,58.50
2023-03-05T08:25:34.859Z,56.87
2023-03-05T08:28:02.578Z,56.04
2023-03-05T08:30:30.777Z,57.96
2023-03-05T08:32:58.388Z,57.44
2023-03-05T08:35:26.401Z,57.27
2023-03-05T08:37:54.018Z,56.98
2023-03-05T08:40:22.074Z,58.09
2023-03-05T08:42:52.333Z,56.82
2023-03-05T08:45:20.249Z,56.03
2023-03-05T08:47:47.882Z,56.48
2023-03-05T08:50:15.931Z,56.15
2023-03-05T08:52:43.609Z,55.74
2023-03-05T08:55:12.874Z,56.51
2023-03-05T08:57:40.489Z,56.92
2023-03-05T09:00:10.471Z,55.68
2023-03-05T09:02:38.296Z,55.74
2023-03-05T09:05:07.102Z,55.88
2023-03-05T09:07:34.846Z,56.80
2023-03-05T09:10:02.903Z,55.55
2023-03-05T09:12:30.549Z,53.64
2023-03-05T09:14:58.570Z,54.09
2023-03-05T09:17:26.295Z,55.10
2023-03-05T09:19:54.321Z,55.12
2023-03-05T09:22:21.990Z,56.12
2023-03-05T09:24:49.972Z,56.94
2023-03-05T09:27:17.590Z,57.03
2023-03-05T09:29:45.727Z,54.24
2023-03-05T09:32:13.661Z,55.93
2023-03-05T09:34:41.843Z,56.43
2023-03-05T09:37:09.889Z,56.44
2023-03-05T09:39:38.029Z,54.58
2023-03-05T09:42:10.203Z,55.42
2023-03-05T09:45:02.298Z,55.50
2023-03-05T09:47:30.048Z,54.15
2023-03-05T09:50:32.292Z,53.62
2023-03-05T09:53:05.260Z,53.96
2023-03-05T09:55:33.329Z,52.94
2023-03-05T09:58:06.289Z,52.87
2023-03-05T10:00:34.461Z,52.57
2023-03-05T10:03:06.314Z,52.86
2023-03-05T10:05:34.567Z,52.65
2023-03-05T10:08:04.709Z,53.32
2023-03-05T10:10:39.943Z,50.74
2023-03-05T10:13:19.799Z,50.39
2023-03-05T10:16:07.017Z,49.82
2023-03-05T10:18:34.651Z,49.44
2023-03-05T10:21:25.865Z,48.47
2023-03-05T10:24:06.211Z,47.44
2023-03-05T10:26:50.853Z,46.28
2023-03-05T10:29:21.419Z,47.69
2023-03-05T10:31:52.903Z,48.12
2023-03-05T10:34:31.772Z,48.08
2023-03-05T10:37:13.059Z,46.33
2023-03-05T10:39:59.212Z,45.11
2023-03-05T10:42:48.499Z,46.97
2023-03-05T10:45:18.333Z,46.23
2023-03-05T10:47:46.428Z,46.61
2023-03-05T10:50:25.135Z,46.54
2023-03-05T10:53:14.239Z,46.37
2023-03-05T10:55:42.327Z,47.17
2023-03-05T10:58:11.774Z,46.84
2023-03-05T11:00:57.522Z,45.28
2023-03-05T11:03:25.707Z,44.56
2023-03-05T11:06:01.666Z,43.50
2023-03-05T11:08:32.045Z,43.13
2023-03-05T11:11:04.551Z,43.23
2023-03-05T11:13:34.037Z,44.09
2023-03-05T11:16:04.066Z,42.68
2023-03-05T11:18:36.503Z,40.58
2023-03-05T11:21:09.052Z,39.70
2023-03-05T11:23:37.482Z,40.16
2023-03-05T11:26:15.872Z,40.85
2023-03-05T11:28:52.846Z,42.67
2023-03-05T11:31:25.999Z,41.33
2023-03-05T11:34:02.189Z,42.82
2023-03-05T11:36:34.603Z,40.93
2023-03-05T11:39:05.363Z,42.53
2023-03-05T11:41:37.555Z,40.70
2023-03-05T11:44:13.290Z,40.40
2023-03-05T11:46:42.875Z,39.36
2023-03-05T11:49:14.404Z,41.01
2023-03-05T11:51:45.793Z,40.82
2023-03-05T11:54:16.878Z,42.43
2023-03-05T11:56:46.286Z,42.99
2023-03-05T11:59:14.278Z,41.18
2023-03-05T12:01:53.147Z,42.70
2023-03-05T12:04:22.609Z,40.94
2023-03-05T12:06:58.199Z,40.33
2023-03-05T12:09:45.725Z,42.00
2023-03-05T12:12:22.590Z,42.35
2023-03-05T12:14:59.572Z,43.20
2023-03-05T12:17:37.840Z,43.01
2023-03-05T12:20:06.899Z,40.90
2023-03-05T12:22:38.053Z,40.75
2023-03-05T12:25:24.936Z,38.76
2023-03-05T12:27:52.902Z,40.45
2023-03-05T12:30:29.738Z,41.46
2023-03-05T12:32:57.486Z,39.13
2023-03-05T12:35:27.373Z,38.96
2023-03-05T12:37:55.031Z,39.26
2023-03-05T12:40:23.090Z,41.07
2023-03-05T12:42:50.757Z,41.06
2023-03-05T12:45:20.022Z,39.96
2023-03-05T12:47:47.696Z,40.91
2023-03-05T12:50:28.005Z,38.19
2023-03-05T12:52:57.183Z,41.68
2023-03-05T12:55:50.314Z,41.03
2023-03-05T12:58:17.932Z,39.65
2023-03-05T13:00:49.789Z,37.01
2023-03-05T13:03:37.183Z,39.18
2023-03-05T13:06:07.010Z,39.80
2023-03-05T13:08:38.372Z,38.94
2023-03-05T13:11:16.558Z,37.24
2023-03-05T13:13:45.698Z,37.21
2023-03-05T13:16:18.753Z,40.20
2023-03-05T13:18:48.360Z,36.68
2023-03-05T13:21:18.166Z,37.75
2023-03-05T13:23:47.014Z,37.88
2023-03-05T13:26:18.936Z,37.62
2023-03-05T13:29:05.132Z,39.14
2023-03-05T13:31:34.979Z,38.96
2023-03-05T13:34:12.543Z,39.64
2023-03-05T13:36:40.806Z,39.52
2023-03-05T13:39:18.160Z,37.63
2023-03-05T13:41:55.558Z,35.38
2023-03-05T13:44:23.115Z,35.71
2023-03-05T13:46:51.161Z,35.72
2023-03-05T13:49:23.229Z,36.82
2023-03-05T13:51:52.437Z,37.63
2023-03-05T13:54:20.545Z,37.34
2023-03-05T13:56:59.205Z,37.30
2023-03-05T13:59:29.220Z,36.91
2023-03-05T14:01:59.094Z,36.63
2023-03-05T14:04:28.746Z,36.90
2023-03-05T14:06:59.407Z,36.16
2023-03-05T14:09:39.027Z,34.31
2023-03-05T14:12:06.980Z,36.48
2023-03-05T14:14:36.700Z,35.12
2023-03-05T14:17:30.797Z,36.57
2023-03-05T14:20:13.375Z,36.78
2023-03-05T14:22:43.161Z,36.72
2023-03-05T14:25:37.801Z,36.49
2023-03-05T14:28:25.443Z,35.86
2023-03-05T14:30:54.796Z,37.08
2023-03-05T14:33:24.311Z,34.50
2023-03-05T14:35:52.800Z,34.02
2023-03-05T14:38:24.274Z,35.25
2023-03-05T14:40:52.097Z,34.45
2023-03-05T14:43:20.343Z,36.08
2023-03-05T14:45:48.126Z,35.92
2023-03-05T14:48:18.909Z,35.11
2023-03-05T14:50:51.917Z,36.56
2023-03-05T14:53:25.950Z,36.84
2023-03-05T14:55:56.930Z,36.05
2023-03-05T14:58:26.398Z,35.81
2023-03-05T15:00:54.571Z,34.29
2023-03-05T15:03:23.113Z,34.16
2023-03-05T15:05:52.900Z,33.37
2023-03-05T15:08:23.034Z,31.25
2023-03-05T15:10:51.403Z,31.60
2023-03-05T15:13:19.286Z,32.78
2023-03-05T15:15:48.123Z,32.96
2023-03-05T15:18:18.110Z,31.98
2023-03-05T15:20:46.462Z,31.22
2023-03-05T15:23:14.467Z,31.83
2023-03-05T15:25:42.227Z,33.55
2023-03-05T15:28:10.230Z,32.87
2023-03-05T15:30:39.921Z,32.07
2023-03-05T15:33:10.718Z,31.48
2023-03-05T15:35:38.354Z,31.52
2023-03-05T15:38:06.255Z,32.28
2023-03-05T15:40:34.259Z,32.75
2023-03-05T15:43:02.145Z,33.80
2023-03-05T15:45:31.563Z,34.27
2023-03-05T15:47:59.733Z,35.10
2023-03-05T15:50:27.294Z,37.75
2023-03-05T15:52:55.321Z,37.69
2023-03-05T15:55:22.953Z,38.38
2023-03-05T15:57:52.217Z,39.30
2023-03-05T16:00:25.535Z,38.19
2023-03-05T16:02:53.903Z,38.54
2023-03-05T16:05:21.914Z,38.61
2023-03-05T16:07:51.945Z,40.23
2023-03-05T16:10:22.506Z,40.10
2023-03-05T16:12:52.299Z,41.76
2023-03-05T16:15:21.850Z,42.88
2023-03-05T16:17:53.832Z,40.91
2023-03-05T16:20:22.126Z,41.43
2023-03-05T16:22:50.283Z,41.08
2023-03-05T16:25:18.128Z,41.69
2023-03-05T16:27:46.098Z,41.91
2023-03-05T16:30:17.185Z,42.21
2023-03-05T16:32:45.245Z,43.13
2023-03-05T16:35:13.325Z,43.25
2023-03-05T16:37:41.508Z,43.08
2023-03-05T16:40:10.265Z,43.83
2023-03-05T16:42:38.111Z,44.51
2023-03-05T16:45:06.501Z,45.45
2023-03-05T16:47:34.572Z,44.46
2023-03-05T16:50:02.577Z,44.33
2023-03-05T16:52:30.989Z,44.04
2023-03-05T16:54:58.714Z,44.83
2023-03-05T16:57:26.988Z,45.58
2023-03-05T16:59:55.775Z,45.46
2023-03-05T17:02:24.087Z,45.69
2023-03-05T17:04:51.968Z,45.45
2023-03-05T17:07:20.221Z,46.31
2023-03-05T17:09:48.402Z,45.90
2023-03-05T17:12:16.378Z,46.25
2023-03-05T17:14:44.039Z,46.21
2023-03-05T17:17:12.286Z,46.38
2023-03-05T17:19:40.416Z,46.85
2023-03-05T17:22:08.386Z,48.08
2023-03-05T17:24:36.563Z,47.50
2023-03-05T17:27:04.525Z,47.93
2023-03-05T17:29:32.225Z,48.24
2023-03-05T17:32:00.348Z,48.01
2023-03-05T17:34:36.148Z,48.52
2023-03-05T17:37:05.246Z,48.76
2023-03-05T17:39:33.385Z,49.02
2023-03-05T17:42:01.423Z,48.65
2023-03-05T17:44:28.974Z,49.29
2023-03-05T17:46:57.232Z,49.53
2023-03-05T17:49:25.068Z,50.09
2023-03-05T17:51:53.066Z,50.46
2023-03-05T17:54:20.870Z,49.85
2023-03-05T17:56:49.266Z,50.98
2023-03-05T17:59:17.046Z,50.96
2023-03-05T18:01:46.394Z,50.68
2023-03-05T18:04:15.607Z,51.01
2023-03-05T18:06:43.896Z,51.51
2023-03-05T18:09:12.302Z,50.54
2023-03-05T18:11:40.851Z,50.71
2023-03-05T18:14:09.834Z,50.79
2023-03-05T18:16:39.371Z,51.12
2023-03-05T18:19:11.327Z,51.05
2023-03-05T18:21:40.489Z,51.63
2023-03-05T18:24:09.678Z,52.74
2023-03-05T18:26:38.162Z,52.52
2023-03-05T18:29:07.186Z,52.23
2023-03-05T18:31:37.075Z,52.44
2023-03-05T18:34:05.236Z,52.97
2023-03-05T18:36:33.498Z,53.72
2023-03-05T18:39:01.280Z,53.68
2023-03-05T18:41:31.480Z,53.04
2023-03-05T18:43:59.282Z,52.97
2023-03-05T18:46:27.516Z,53.48
2023-03-05T18:48:55.280Z,53.67
2023-03-05T18:51:23.480Z,53.70
2023-03-05T18:53:55.136Z,53.90
2023-03-05T18:56:23.916Z,54.08
2023-03-05T18:58:51.763Z,54.09
2023-03-05T19:01:20.210Z,53.94
2023-03-05T19:03:49.518Z,54.02
2023-03-05T19:06:17.928Z,53.67
2023-03-05T19:08:45.764Z,54.03
2023-03-05T19:11:16.491Z,54.05
2023-03-05T19:13:49.086Z,53.77
2023-03-05T19:16:20.125Z,54.03
2023-03-05T19:19:16.785Z,53.98
2023-03-05T19:21:48.880Z,53.91
2023-03-05T19:24:17.190Z,53.75
2023-03-05T19:26:45.375Z,53.88
2023-03-05T19:29:13.177Z,54.28
2023-03-05T19:31:41.369Z,54.27
2023-03-05T19:34:09.068Z,54.39
2023-03-05T19:36:37.214Z,54.37
2023-03-05T19:39:05.418Z,53.75
2023-03-05T19:41:33.976Z,53.60
2023-03-05T19:44:01.681Z,53.87
2023-03-05T19:46:30.083Z,53.60
2023-03-05T19:48:57.908Z,53.50
2023-03-05T19:51:26.729Z,53.47
2023-03-05T19:53:54.510Z,53.77
2023-03-05T19:56:22.799Z,53.17
2023-03-05T19:58:50.599Z,53.36
2023-03-05T20:01:20.710Z,53.97
2023-03-05T20:03:49.841Z,54.83
2023-03-05T20:06:18.520Z,54.95
2023-03-05T20:08:46.564Z,54.98
2023-03-05T20:11:15.844Z,55.91
2023-03-05T20:13:43.797Z,56.98
2023-03-05T20:16:26.094Z,56.86
2023-03-05T20:18:55.287Z,57.35
2023-03-05T20:21:27.868Z,57.85
2023-03-05T20:23:56.881Z,57.77
2023-03-05T20:26:26.892Z,57.33
2023-03-05T20:28:55.120Z,58.16
2023-03-05T20:31:25.186Z,58.04
2023-03-05T20:33:53.302Z,58.36
2023-03-05T20:36:21.407Z,59.29
2023-03-05T20:38:49.122Z,58.59
2023-03-05T20:41:18.632Z,58.82
2023-03-05T20:43:49.767Z,58.71
2023-03-05T20:46:37.200Z,59.48
2023-03-05T20:49:09.037Z,59.50
2023-03-05T20:51:38.303Z,59.84
2023-03-05T20:54:07.457Z,59.42
2023-03-05T20:56:36.377Z,59.75
2023-03-05T20:59:06.452Z,59.66
2023-03-05T21:01:35.574Z,59.79
2023-03-05T21:04:04.515Z,59.75
2023-03-05T21:06:33.083Z,60.25
2023-03-05T21:09:01.104Z,60.32
2023-03-05T21:11:31.205Z,60.16
2023-03-05T21:13:59.606Z,59.91
2023-03-05T21:16:28.152Z,60.69
2023-03-05T21:18:57.502Z,60.20
2023-03-05T21:21:25.627Z,60.29
2023-03-05T21:23:53.718Z,60.46
2023-03-05T21:26:23.005Z,60.60
2023-03-05T21:28:50.806Z,60.64
2023-03-05T21:31:20.542Z,60.71
2023-03-05T21:33:48.986Z,60.86
2023-03-05T21:36:18.947Z,60.52
2023-03-05T21:38:47.459Z,60.10
2023-03-05T21:41:15.954Z,60.71
2023-03-05T21:43:44.081Z,60.67
2023-03-05T21:46:12.185Z,60.89
2023-03-05T21:48:39.972Z,60.94
2023-03-05T21:51:17.218Z,60.42
2023-03-05T21:53:47.607Z,61.20
2023-03-05T21:56:26.089Z,61.04
2023-03-05T21:58:54.158Z,60.63
2023-03-05T22:01:22.609Z,61.41
2023-03-05T22:03:50.700Z,60.67
2023-03-05T22:06:19.799Z,60.76
2023-03-05T22:08:47.782Z,60.67
2023-03-05T22:11:17.584Z,60.46
2023-03-05T22:13:45.532Z,61.41
2023-03-05T22:16:21.103Z,62.44
2023-03-05T22:18:48.823Z,61.27
2023-03-05T22:21:21.350Z,61.20
2023-03-05T22:23:50.065Z,61.29
2023-03-05T22:26:18.120Z,61.34
2023-03-05T22:28:46.165Z,61.33
2023-03-05T22:31:20.987Z,61.05
2023-03-05T22:33:48.889Z,61.47
2023-03-05T22:36:17.117Z,62.04
2023-03-05T22:38:44.737Z,61.98
2023-03-05T22:41:16.942Z,62.04
2023-03-05T22:43:44.799Z,62.00
2023-03-05T22:46:14.354Z,61.94
2023-03-05T22:48:42.358Z,62.42
2023-03-05T22:51:11.586Z,62.62
2023-03-05T22:53:39.629Z,62.56
2023-03-05T22:56:12.276Z,62.54
2023-03-05T22:58:39.924Z,62.76
2023-03-05T23:01:12.472Z,62.46
2023-03-05T23:03:41.214Z,63.12
2023-03-05T23:06:41.662Z,63.08
2023-03-05T23:09:09.255Z,62.69
2023-03-05T23:11:37.249Z,62.54
2023-03-05T23:14:04.892Z,62.48
2023-03-05T23:16:32.806Z,62.41
2023-03-05T23:19:00.443Z,62.90
2023-03-05T23:21:28.385Z,63.10
2023-03-05T23:23:58.000Z,63.59
2023-03-05T23:26:25.930Z,63.60
2023-03-05T23:28:53.531Z,63.16
2023-03-05T23:31:21.530Z,63.70
2023-03-05T23:33:49.273Z,63.86
2023-03-05T23:36:20.071Z,63.73
2023-03-05T23:38:47.981Z,64.18
2023-03-05T23:41:15.920Z,63.39
2023-03-05T23:43:43.594Z,63.16
2023-03-05T23:46:12.175Z,62.79
2023-03-05T23:48:40.024Z,63.40
2023-03-05T23:51:09.363Z,64.00
2023-03-05T23:53:37.389Z,63.84
2023-03-05T23:56:10.212Z,64.48
2023-03-05T23:58:38.860Z,64.29
